Terminal Aerodrome Forecast
Issued by NWS Billings, MT

Home | Current Version | Previous Version | Text Only | Print | Product List | Glossary Off
Versions: 1 2 3 4 5 6 7 8 9 10 11 12 13 14 15 16 17 18 19 20 21 22 23 24 25 26 27 28 29 30

789
FTUS45 KBYZ 041137
TAFMLS
TAF
KMLS 041137Z 0412/0512 28008KT P6SM BKN100
     FM041300 21008KT P6SM BKN100
     FM050200 31014KT P6SM SCT040 OVC080
     FM050300 31016KT P6SM -SHSN BKN040=

USA.gov is the U.S. government's official web portal to all federal, state and local government web resources and services.